createdAt,value
2024-05-09T00:02:08.812Z,99.90
2024-05-09T00:06:14.400Z,99.90
2024-05-09T00:10:28.784Z,99.90
2024-05-09T00:14:40.462Z,99.90
2024-05-09T00:18:46.165Z,99.90
2024-05-09T00:22:51.879Z,99.70
2024-05-09T00:26:58.391Z,99.90
2024-05-09T00:31:03.930Z,99.90
2024-05-09T00:35:09.593Z,99.90
2024-05-09T00:39:15.161Z,99.90
2024-05-09T00:43:20.775Z,99.90
2024-05-09T00:47:26.758Z,99.90
2024-05-09T00:51:32.633Z,99.90
2024-05-09T00:55:39.691Z,99.90
2024-05-09T00:59:45.340Z,99.90
2024-05-09T01:03:51.496Z,99.90
2024-05-09T01:07:57.419Z,99.90
2024-05-09T01:12:03.247Z,99.90
2024-05-09T01:16:08.982Z,99.90
2024-05-09T01:20:20.189Z,99.90
2024-05-09T01:24:33.183Z,99.90
2024-05-09T01:28:38.786Z,99.90
2024-05-09T01:32:44.503Z,99.90
2024-05-09T01:36:50.117Z,99.90
2024-05-09T01:40:55.770Z,99.90
2024-05-09T01:45:01.466Z,99.90
2024-05-09T01:49:08.246Z,99.90
2024-05-09T01:53:15.431Z,99.90
2024-05-09T01:57:21.171Z,99.90
2024-05-09T02:01:26.966Z,99.90
2024-05-09T02:05:32.714Z,99.90
2024-05-09T02:09:38.329Z,99.90
2024-05-09T02:13:44.048Z,99.90
2024-05-09T02:17:49.744Z,99.90
2024-05-09T02:21:55.370Z,99.90
2024-05-09T02:26:00.976Z,99.90
2024-05-09T02:30:18.265Z,99.90
2024-05-09T02:34:28.605Z,99.90
2024-05-09T02:38:34.611Z,99.90
2024-05-09T02:42:40.177Z,99.90
2024-05-09T02:46:46.392Z,99.90
2024-05-09T02:50:52.222Z,99.90
2024-05-09T02:54:57.968Z,99.90
2024-05-09T02:59:03.656Z,99.90
2024-05-09T03:03:14.818Z,99.90
2024-05-09T03:07:21.360Z,99.90
2024-05-09T03:11:27.276Z,99.90
2024-05-09T03:15:33.184Z,99.90
2024-05-09T03:19:38.976Z,99.90
2024-05-09T03:23:45.015Z,99.90
2024-05-09T03:27:50.723Z,99.90
2024-05-09T03:31:56.490Z,99.90
2024-05-09T03:36:04.610Z,99.90
2024-05-09T03:40:17.727Z,99.90
2024-05-09T03:44:26.718Z,99.90
2024-05-09T03:48:36.155Z,99.90
2024-05-09T03:52:41.829Z,99.90
2024-05-09T03:56:47.415Z,99.90
2024-05-09T04:00:53.047Z,99.90
2024-05-09T04:04:58.722Z,99.90
2024-05-09T04:09:05.337Z,99.90
2024-05-09T04:13:11.445Z,99.90
2024-05-09T04:17:17.725Z,99.90
2024-05-09T04:21:23.332Z,99.90
2024-05-09T04:25:28.949Z,99.90
2024-05-09T04:29:37.513Z,99.90
2024-05-09T04:33:43.311Z,99.90
2024-05-09T04:37:50.166Z,99.90
2024-05-09T04:41:56.124Z,99.90
2024-05-09T04:46:01.994Z,99.90
2024-05-09T04:50:11.548Z,99.90
2024-05-09T04:58:29.161Z,99.90
2024-05-09T05:02:34.884Z,99.90
2024-05-09T05:06:40.482Z,99.90
2024-05-09T05:10:47.163Z,99.90
2024-05-09T05:14:53.475Z,99.90
2024-05-09T05:18:59.117Z,99.90
2024-05-09T05:23:08.466Z,99.90
2024-05-09T05:27:14.111Z,99.90
2024-05-09T05:31:19.694Z,99.90
2024-05-09T05:35:25.401Z,99.90
2024-05-09T05:39:31.143Z,99.90
2024-05-09T05:43:36.780Z,99.90
2024-05-09T05:47:42.590Z,99.90
2024-05-09T05:51:48.270Z,99.90
2024-05-09T05:55:53.961Z,99.90
2024-05-09T06:00:00.424Z,99.90
2024-05-09T06:04:06.091Z,99.90
2024-05-09T06:08:12.140Z,99.90
2024-05-09T06:12:18.022Z,99.90
2024-05-09T06:16:23.711Z,99.90
2024-05-09T06:20:35.764Z,99.90
2024-05-09T06:24:43.898Z,99.90
2024-05-09T06:28:49.527Z,99.90
2024-05-09T06:32:55.303Z,99.90
2024-05-09T06:37:01.038Z,99.90
2024-05-09T06:41:07.002Z,99.90
2024-05-09T06:45:13.811Z,99.90
2024-05-09T06:49:19.619Z,99.90
2024-05-09T06:53:25.508Z,99.90
2024-05-09T06:57:31.188Z,99.90
2024-05-09T07:01:36.697Z,99.90
2024-05-09T07:05:42.372Z,99.90
2024-05-09T07:09:47.976Z,99.90
2024-05-09T07:13:53.778Z,99.90
2024-05-09T07:17:59.355Z,99.90
2024-05-09T07:22:04.951Z,99.00
2024-05-09T07:26:10.410Z,98.40
2024-05-09T07:30:26.937Z,99.40
2024-05-09T07:34:36.452Z,99.70
2024-05-09T07:38:42.099Z,99.90
2024-05-09T07:42:47.810Z,99.50
2024-05-09T07:48:13.671Z,99.00
2024-05-09T07:55:27.745Z,97.80
2024-05-09T07:59:37.026Z,97.80
2024-05-09T08:03:43.355Z,97.20
2024-05-09T08:07:49.298Z,96.80
2024-05-09T08:11:54.865Z,96.90
2024-05-09T08:16:00.742Z,95.70
2024-05-09T08:20:07.637Z,96.40
2024-05-09T08:24:14.319Z,95.70
2024-05-09T08:28:20.043Z,95.30
2024-05-09T08:32:27.483Z,94.90
2024-05-09T08:36:33.934Z,93.90
2024-05-09T08:40:39.726Z,93.80
2024-05-09T08:44:45.643Z,94.40
2024-05-09T08:48:52.713Z,93.90
2024-05-09T08:52:58.919Z,92.80
2024-05-09T08:57:05.193Z,92.90
2024-05-09T09:01:10.721Z,93.10
2024-05-09T09:05:21.407Z,92.50
2024-05-09T09:09:28.156Z,92.40
2024-05-09T09:13:33.790Z,91.90
2024-05-09T09:17:39.607Z,91.50
2024-05-09T09:21:45.812Z,91.50
2024-05-09T09:25:52.012Z,90.70
2024-05-09T09:29:57.814Z,91.00
2024-05-09T09:34:09.237Z,90.40
2024-05-09T09:38:19.067Z,90.10
2024-05-09T09:42:34.410Z,86.40
2024-05-09T09:46:42.051Z,86.80
2024-05-09T09:50:49.305Z,85.30
2024-05-09T09:54:56.509Z,86.30
2024-05-09T09:59:05.323Z,88.00
2024-05-09T10:03:10.956Z,83.60
2024-05-09T10:07:18.947Z,82.60
2024-05-09T10:11:25.126Z,82.00
2024-05-09T10:15:31.963Z,78.20
2024-05-09T10:19:37.565Z,76.60
2024-05-09T10:23:56.845Z,75.70
2024-05-09T10:28:03.243Z,76.70
2024-05-09T10:32:09.566Z,76.90
2024-05-09T10:36:27.067Z,74.60
2024-05-09T10:40:32.744Z,71.30
2024-05-09T10:44:38.933Z,70.60
2024-05-09T10:48:45.647Z,69.60
2024-05-09T10:52:53.796Z,70.00
2024-05-09T10:56:59.437Z,68.00
2024-05-09T11:01:07.298Z,68.60
2024-05-09T11:05:13.608Z,68.40
2024-05-09T11:09:19.373Z,68.80
2024-05-09T11:13:32.390Z,69.00
2024-05-09T11:17:38.563Z,67.30
2024-05-09T11:21:44.276Z,69.40
2024-05-09T11:25:58.176Z,67.20
2024-05-09T11:30:04.419Z,64.90
2024-05-09T11:34:11.242Z,62.50
2024-05-09T11:38:16.874Z,61.70
2024-05-09T11:42:22.587Z,64.50
2024-05-09T11:46:29.308Z,61.50
2024-05-09T11:50:36.116Z,61.10
2024-05-09T11:54:42.055Z,60.50
2024-05-09T11:58:47.754Z,60.80
2024-05-09T12:02:54.334Z,60.10
2024-05-09T12:07:00.125Z,60.80
2024-05-09T12:11:06.127Z,57.60
2024-05-09T12:15:12.701Z,57.80
2024-05-09T12:19:18.426Z,57.40
2024-05-09T12:23:24.116Z,57.90
2024-05-09T12:27:29.762Z,56.90
2024-05-09T12:31:35.469Z,53.70
2024-05-09T12:35:44.362Z,55.20
2024-05-09T12:39:52.322Z,55.50
2024-05-09T12:43:57.903Z,57.00
2024-05-09T12:48:06.928Z,57.10
2024-05-09T12:52:12.996Z,56.20
2024-05-09T12:56:18.693Z,56.80
2024-05-09T13:00:31.402Z,56.60
2024-05-09T13:04:39.598Z,56.00
2024-05-09T13:08:45.474Z,54.50
2024-05-09T13:12:51.112Z,55.70
2024-05-09T13:16:56.764Z,55.20
2024-05-09T13:21:02.662Z,55.30
2024-05-09T13:25:08.520Z,56.40
2024-05-09T13:29:14.198Z,55.20
2024-05-09T13:33:20.042Z,53.40
2024-05-09T13:37:25.910Z,54.50
2024-05-09T13:41:31.492Z,54.10
2024-05-09T13:45:37.188Z,54.40
2024-05-09T13:49:43.070Z,54.60
2024-05-09T13:53:48.691Z,55.70
2024-05-09T13:57:54.500Z,54.70
2024-05-09T14:02:00.147Z,52.40
2024-05-09T14:06:07.588Z,53.20
2024-05-09T14:10:22.658Z,53.00
2024-05-09T14:14:32.025Z,51.90
2024-05-09T14:18:37.916Z,53.20
2024-05-09T14:22:43.524Z,52.70
2024-05-09T14:26:49.264Z,52.20
2024-05-09T14:30:56.789Z,53.90
2024-05-09T14:35:02.704Z,54.10
2024-05-09T14:39:08.374Z,53.00
2024-05-09T14:43:15.881Z,52.30
2024-05-09T14:47:22.108Z,52.00
2024-05-09T14:51:27.770Z,52.00
2024-05-09T14:55:35.724Z,52.90
2024-05-09T14:59:41.762Z,52.50
2024-05-09T15:03:47.475Z,54.20
2024-05-09T15:07:53.161Z,53.80
2024-05-09T15:11:58.779Z,55.30
2024-05-09T15:16:04.665Z,55.10
2024-05-09T15:20:16.773Z,55.80
2024-05-09T15:24:23.097Z,56.10
2024-05-09T15:28:28.950Z,56.80
2024-05-09T15:32:35.037Z,57.30
2024-05-09T15:36:43.067Z,57.10
2024-05-09T15:40:49.064Z,57.50
2024-05-09T15:44:54.760Z,57.40
2024-05-09T15:49:00.689Z,57.70
2024-05-09T15:53:07.580Z,58.70
2024-05-09T15:57:13.872Z,58.90
2024-05-09T16:01:19.512Z,59.30
2024-05-09T16:05:25.352Z,59.60
2024-05-09T16:09:31.427Z,59.90
2024-05-09T16:13:37.279Z,60.70
2024-05-09T16:17:42.992Z,61.20
2024-05-09T16:21:48.594Z,61.20
2024-05-09T16:25:54.468Z,60.90
2024-05-09T16:30:04.143Z,61.20
2024-05-09T16:34:12.678Z,61.40
2024-05-09T16:38:19.225Z,62.20
2024-05-09T16:42:24.775Z,62.00
2024-05-09T16:46:31.921Z,62.40
2024-05-09T16:50:38.067Z,62.60
2024-05-09T16:54:43.718Z,63.10
2024-05-09T16:58:49.659Z,63.80
2024-05-09T17:02:55.236Z,63.70
2024-05-09T17:07:00.968Z,63.60
2024-05-09T17:11:06.721Z,64.20
2024-05-09T17:15:12.682Z,64.80
2024-05-09T17:19:18.556Z,65.40
2024-05-09T17:23:24.279Z,65.30
2024-05-09T17:27:29.929Z,65.50
2024-05-09T17:31:35.628Z,66.10
2024-05-09T17:35:41.769Z,66.70
2024-05-09T17:39:47.554Z,67.10
2024-05-09T17:43:53.247Z,68.00
2024-05-09T17:47:59.193Z,68.40
2024-05-09T17:52:05.530Z,68.80
2024-05-09T17:56:11.270Z,69.60
2024-05-09T18:00:24.743Z,69.80
2024-05-09T18:04:39.678Z,70.40
2024-05-09T18:08:45.343Z,71.00
2024-05-09T18:12:51.029Z,71.40
2024-05-09T18:16:56.936Z,71.80
2024-05-09T18:21:02.534Z,72.40
2024-05-09T18:25:08.331Z,72.60
2024-05-09T18:29:14.065Z,73.10
2024-05-09T18:33:20.472Z,73.70
2024-05-09T18:37:26.785Z,74.20
2024-05-09T18:41:32.433Z,75.00
2024-05-09T18:45:39.015Z,75.10
2024-05-09T18:49:45.027Z,76.10
2024-05-09T18:53:52.419Z,77.70
2024-05-09T18:57:58.074Z,77.70
2024-05-09T19:02:03.997Z,78.70
2024-05-09T19:06:09.794Z,79.80
2024-05-09T19:10:22.488Z,80.60
2024-05-09T19:14:31.572Z,81.40
2024-05-09T19:18:37.987Z,82.40
2024-05-09T19:22:43.857Z,83.40
2024-05-09T19:26:49.528Z,84.50
2024-05-09T19:30:54.991Z,85.50
2024-05-09T19:35:00.791Z,89.00
2024-05-09T19:39:06.924Z,89.30
2024-05-09T19:43:12.622Z,89.60
2024-05-09T19:47:18.344Z,90.50
2024-05-09T19:51:24.063Z,91.00
2024-05-09T19:55:29.628Z,91.90
2024-05-09T19:59:35.215Z,92.50
2024-05-09T20:03:40.954Z,93.20
2024-05-09T20:07:46.629Z,93.80
2024-05-09T20:11:52.279Z,94.70
2024-05-09T20:15:57.933Z,95.60
2024-05-09T20:20:05.896Z,96.20
2024-05-09T20:24:12.943Z,96.20
2024-05-09T20:28:18.579Z,96.40
2024-05-09T20:32:24.237Z,96.50
2024-05-09T20:36:29.971Z,96.70
2024-05-09T20:40:38.499Z,97.10
2024-05-09T20:44:45.642Z,97.50
2024-05-09T20:48:51.491Z,97.90
2024-05-09T20:52:57.214Z,98.40
2024-05-09T20:57:03.056Z,98.70
2024-05-09T21:01:08.801Z,99.10
2024-05-09T21:05:14.726Z,99.40
2024-05-09T21:09:20.404Z,99.40
2024-05-09T21:13:26.224Z,99.50
2024-05-09T21:17:31.845Z,99.50
2024-05-09T21:21:43.634Z,99.50
2024-05-09T21:25:49.316Z,99.90
2024-05-09T21:29:54.912Z,99.80
2024-05-09T21:34:01.513Z,99.90
2024-05-09T21:38:07.698Z,99.90
2024-05-09T21:42:13.507Z,99.90
2024-05-09T21:46:19.611Z,99.90
2024-05-09T21:50:32.371Z,99.90
2024-05-09T21:54:44.796Z,99.90
2024-05-09T21:58:50.375Z,99.90
2024-05-09T22:02:56.080Z,99.90
2024-05-09T22:07:01.882Z,99.90
2024-05-09T22:11:07.578Z,99.90
2024-05-09T22:15:13.366Z,99.90
2024-05-09T22:19:19.087Z,99.90
2024-05-09T22:23:24.727Z,99.90
2024-05-09T22:27:30.289Z,99.90
2024-05-09T22:31:35.894Z,99.90
2024-05-09T22:35:41.476Z,99.90
2024-05-09T22:39:46.929Z,99.90
2024-05-09T22:43:52.365Z,99.90
2024-05-09T22:47:58.054Z,99.90
2024-05-09T22:52:03.698Z,99.90
2024-05-09T22:56:09.126Z,99.90
2024-05-09T23:00:16.098Z,99.90
2024-05-09T23:04:21.998Z,99.90
2024-05-09T23:08:27.590Z,99.90
2024-05-09T23:12:33.211Z,99.90
2024-05-09T23:16:38.811Z,99.90
2024-05-09T23:20:44.472Z,99.90
2024-05-09T23:24:49.881Z,99.90
2024-05-09T23:28:55.496Z,99.90
2024-05-09T23:33:01.303Z,99.90
2024-05-09T23:37:07.173Z,99.90
2024-05-09T23:41:12.812Z,99.90
2024-05-09T23:45:18.368Z,99.90
2024-05-09T23:49:23.965Z,99.90
2024-05-09T23:53:29.577Z,99.90
2024-05-09T23:57:35.198Z,99.90
